Time;durP1;ratioP1;P1;durP2;ratioP2;P2;SDS_P1;SDS_P2;PMS_P1;PMS_P2;Temp;Humidity;BMP_temperature;BMP_pressure;BME280_temperature;BME280_humidity;BME280_pressure;Samples;Min_cycle;Max_cycle;Signal;HPM_P1;HPM_P2
2022/10/10 00:00:22;;;;;;;;;;;;;;;16.88;39.71;100046.31;4437204;32;34030;-82
2022/10/10 00:02:50;;;;;;;;;;;;;;;17.02;39.31;100041.97;4448101;32;34151;-82
2022/10/10 00:05:17;;;;;;;;;;;;;;;16.82;39.82;100048.03;4449384;32;34468;-82
2022/10/10 00:07:44;;;;;;;;;;;;;;;16.20;40.26;100052.19;4452515;32;34228;-81
2022/10/10 00:10:12;;;;;;;;;;;;;;;16.78;39.34;100044.53;4452822;32;34331;-82
2022/10/10 00:12:39;;;;;;;;;;;;;;;16.49;39.68;100047.94;4452491;32;34079;-81
2022/10/10 00:15:06;;;;;;;;;;;;;;;15.62;41.21;100042.28;4452125;32;34682;-81
2022/10/10 00:17:34;;;;;;;;;;;;;;;15.26;42.07;100042.88;4452563;32;35029;-81
2022/10/10 00:20:01;;;;;;;;;;;;;;;15.28;42.15;100041.16;4450744;32;34346;-81
2022/10/10 00:22:29;;;;;;;;;;;;;;;16.04;40.43;100036.44;4448117;32;33474;-88
2022/10/10 00:24:56;;;;;;;;;;;;;;;15.23;41.50;100037.66;4452379;32;34160;-81
2022/10/10 00:27:26;;;;;;;;;;;;;;;15.23;42.10;100035.06;4452095;32;34165;-81
2022/10/10 00:29:53;;;;;;;;;;;;;;;15.79;40.43;100037.16;4452252;32;35079;-89
2022/10/10 00:32:20;;;;;;;;;;;;;;;15.58;40.99;100038.78;4452790;32;33573;-81
2022/10/10 00:34:47;;;;;;;;;;;;;;;15.44;41.39;100035.19;4452345;32;34247;-81
2022/10/10 00:37:14;;;;;;;;;;;;;;;15.29;41.35;100022.88;4452330;32;34925;-81
2022/10/10 00:39:42;;;;;;;;;;;;;;;15.14;41.29;100033.22;4451350;32;34556;-81
2022/10/10 00:42:10;;;;;;;;;;;;;;;16.14;39.77;100026.91;4452600;32;34469;-81
2022/10/10 00:44:39;;;;;;;;;;;;;;;15.85;39.44;100024.16;4450679;32;34764;-81
2022/10/10 00:47:07;;;;;;;;;;;;;;;15.15;41.07;100024.50;4451934;32;34437;-81
2022/10/10 00:49:35;;;;;;;;;;;;;;;15.56;40.45;100019.56;4452708;32;34449;-81
2022/10/10 00:52:02;;;;;;;;;;;;;;;15.86;39.45;100017.16;4450629;32;33301;-81
2022/10/10 00:54:31;;;;;;;;;;;;;;;15.93;38.77;100014.59;4451811;32;34806;-89
2022/10/10 00:56:59;;;;;;;;;;;;;;;16.14;38.52;100010.31;4451022;32;35000;-81
2022/10/10 00:59:26;;;;;;;;;;;;;;;14.82;40.64;100012.94;4450749;32;34119;-81
2022/10/10 01:01:54;;;;;;;;;;;;;;;14.92;40.53;100011.25;4451180;32;33053;-81
2022/10/10 01:04:31;;;;;;;;;;;;;;;15.31;39.94;100007.25;4451957;32;34897;-81
2022/10/10 01:06:59;;;;;;;;;;;;;;;14.98;40.22;100005.25;4451642;32;35203;-81
2022/10/10 01:09:26;;;;;;;;;;;;;;;15.20;40.20;99998.44;4445604;32;34098;-81
2022/10/10 01:11:54;;;;;;;;;;;;;;;15.04;40.40;100005.31;4463076;32;31995;-81
2022/10/10 01:14:39;;;;;;;;;;;;;;;15.29;39.32;100001.12;4450509;32;33346;-81
2022/10/10 01:17:10;;;;;;;;;;;;;;;15.65;38.67;100005.75;4450274;32;35317;-81
2022/10/10 01:19:56;;;;;;;;;;;;;;;15.72;38.43;99999.69;4451452;32;34027;-81
2022/10/10 01:22:23;;;;;;;;;;;;;;;15.45;38.79;100007.31;4451863;32;33527;-90
2022/10/10 01:24:50;;;;;;;;;;;;;;;14.54;40.60;99995.25;4451269;32;34439;-89
2022/10/10 01:27:44;;;;;;;;;;;;;;;14.35;40.97;100002.84;4451413;32;33800;-80
2022/10/10 01:30:15;;;;;;;;;;;;;;;14.47;40.95;100007.34;4450899;32;34340;-80
2022/10/10 01:32:43;;;;;;;;;;;;;;;14.81;40.46;99997.25;4450988;32;33061;-81
2022/10/10 01:35:19;;;;;;;;;;;;;;;14.63;40.76;99997.09;4451956;32;33844;-81
2022/10/10 01:37:53;;;;;;;;;;;;;;;14.89;40.27;99990.38;4450204;32;35278;-80
2022/10/10 01:40:44;;;;;;;;;;;;;;;14.54;40.95;99990.91;4450742;32;34304;-81
2022/10/10 01:43:11;;;;;;;;;;;;;;;14.33;41.39;99998.50;4445003;32;32863;-81
2022/10/10 01:45:48;;;;;;;;;;;;;;;14.51;41.14;99992.63;4461252;32;34001;-87
2022/10/10 01:48:17;;;;;;;;;;;;;;;14.42;41.68;99982.06;4438151;32;34389;-80
2022/10/10 01:50:53;;;;;;;;;;;;;;;14.66;40.87;99987.56;4450756;32;34736;-88
2022/10/10 01:53:22;;;;;;;;;;;;;;;15.43;39.53;99989.03;4450175;32;33448;-82
2022/10/10 01:55:56;;;;;;;;;;;;;;;14.34;41.37;99990.66;4435481;32;34801;-81
2022/10/10 01:58:26;;;;;;;;;;;;;;;14.97;40.43;99993.91;4436556;32;34586;-81
2022/10/10 02:00:56;;;;;;;;;;;;;;;15.19;40.19;99999.28;4445406;32;34154;-80
2022/10/10 02:03:28;;;;;;;;;;;;;;;15.03;40.16;99999.16;4451928;32;33100;-81
2022/10/10 02:05:58;;;;;;;;;;;;;;;14.88;40.57;99992.97;4450889;32;34733;-81
2022/10/10 02:08:26;;;;;;;;;;;;;;;14.59;40.96;99989.22;4449935;32;34239;-81
2022/10/10 02:10:58;;;;;;;;;;;;;;;14.12;42.22;99989.56;4452112;32;33803;-81
2022/10/10 02:13:27;;;;;;;;;;;;;;;14.31;41.98;99990.62;4450459;32;33218;-81
2022/10/10 02:15:54;;;;;;;;;;;;;;;14.47;41.67;99988.19;4450833;32;32291;-81
2022/10/10 02:18:22;;;;;;;;;;;;;;;14.51;41.31;99987.41;4450644;32;34064;-91
2022/10/10 02:20:50;;;;;;;;;;;;;;;14.48;41.76;99988.22;4450546;32;33712;-81
2022/10/10 02:23:17;;;;;;;;;;;;;;;14.65;41.42;99984.91;4449289;32;33479;-81
2022/10/10 02:25:46;;;;;;;;;;;;;;;13.91;42.68;99993.66;4449854;32;34862;-82
2022/10/10 02:28:43;;;;;;;;;;;;;;;14.60;41.12;99988.38;4450522;32;34022;-82
2022/10/10 02:31:11;;;;;;;;;;;;;;;14.43;41.40;99983.78;4444858;32;33900;-81
2022/10/10 02:33:46;;;;;;;;;;;;;;;14.19;41.87;99989.62;4450892;32;33460;-81
2022/10/10 02:36:13;;;;;;;;;;;;;;;13.96;42.66;99987.63;4456617;32;33929;-83
2022/10/10 02:38:41;;;;;;;;;;;;;;;14.36;41.65;99988.97;4450326;32;34243;-80
2022/10/10 02:41:08;;;;;;;;;;;;;;;14.40;41.47;99994.22;4450017;32;34113;-86
2022/10/10 02:43:35;;;;;;;;;;;;;;;14.05;42.36;99992.97;4450397;32;33967;-81
2022/10/10 02:46:03;;;;;;;;;;;;;;;14.47;41.83;99991.69;4451195;32;34594;-81
2022/10/10 02:48:30;;;;;;;;;;;;;;;14.68;41.20;99990.19;4450171;32;34507;-81
2022/10/10 02:50:58;;;;;;;;;;;;;;;14.08;42.31;99992.13;4456213;32;32769;-82
2022/10/10 02:53:25;;;;;;;;;;;;;;;14.55;41.39;99986.59;4451424;32;33363;-81
2022/10/10 02:55:52;;;;;;;;;;;;;;;14.32;42.21;99986.31;4451190;32;33834;-81
2022/10/10 02:58:19;;;;;;;;;;;;;;;15.12;40.94;99980.13;4450971;32;34517;-81
2022/10/10 03:00:47;;;;;;;;;;;;;;;15.41;39.66;99984.66;4450054;32;34086;-81
2022/10/10 03:03:14;;;;;;;;;;;;;;;14.41;41.74;99978.56;4450483;32;33198;-82
2022/10/10 03:05:41;;;;;;;;;;;;;;;14.09;42.23;99981.72;4450097;32;34163;-81
2022/10/10 03:08:08;;;;;;;;;;;;;;;14.51;41.61;99976.97;4451189;32;35283;-88
2022/10/10 03:10:37;;;;;;;;;;;;;;;14.75;41.18;99982.41;4450565;32;34304;-81
2022/10/10 03:13:05;;;;;;;;;;;;;;;14.22;41.91;99985.34;4450297;32;33628;-82
2022/10/10 03:15:32;;;;;;;;;;;;;;;13.89;43.00;99985.81;4450946;32;34935;-82
2022/10/10 03:17:59;;;;;;;;;;;;;;;13.93;42.73;99982.38;4450872;32;35180;-82
2022/10/10 03:20:26;;;;;;;;;;;;;;;14.81;41.21;99981.56;4450434;32;33950;-81
2022/10/10 03:22:54;;;;;;;;;;;;;;;14.94;40.73;99973.00;4448299;32;33947;-82
2022/10/10 03:25:21;;;;;;;;;;;;;;;14.95;40.83;99977.34;4450528;32;34890;-84
2022/10/10 03:27:48;;;;;;;;;;;;;;;15.19;40.12;99967.94;4450840;32;34220;-81
2022/10/10 03:30:15;;;;;;;;;;;;;;;14.73;40.87;99973.69;4450517;32;34951;-81
2022/10/10 03:32:42;;;;;;;;;;;;;;;14.47;41.79;99976.03;4450665;32;34267;-83
2022/10/10 03:35:10;;;;;;;;;;;;;;;15.24;40.10;99971.47;4450138;32;34850;-83
2022/10/10 03:37:37;;;;;;;;;;;;;;;14.59;41.59;99973.56;4449589;32;34486;-83
2022/10/10 03:40:04;;;;;;;;;;;;;;;14.87;41.41;99980.78;4442753;32;32703;-83
2022/10/10 03:42:32;;;;;;;;;;;;;;;14.59;41.63;99970.97;4450704;32;33242;-84
2022/10/10 03:44:59;;;;;;;;;;;;;;;14.33;42.27;99967.19;4450891;32;34044;-83
2022/10/10 03:47:26;;;;;;;;;;;;;;;14.60;41.76;99975.31;4450837;32;34219;-83
2022/10/10 03:49:53;;;;;;;;;;;;;;;14.32;42.34;99973.28;4452256;32;34028;-92
2022/10/10 03:52:21;;;;;;;;;;;;;;;15.01;40.96;99972.19;4452823;32;34136;-85
2022/10/10 03:54:48;;;;;;;;;;;;;;;14.88;41.25;99972.94;4452311;32;34914;-83
2022/10/10 03:57:15;;;;;;;;;;;;;;;14.20;42.68;99970.50;4452924;32;35266;-83
2022/10/10 03:59:42;;;;;;;;;;;;;;;13.98;43.33;99975.50;4451660;32;35782;-86
2022/10/10 04:02:09;;;;;;;;;;;;;;;14.04;43.00;99975.56;4451574;32;34567;-83
2022/10/10 04:04:37;;;;;;;;;;;;;;;13.66;43.80;99974.22;4452681;32;33866;-84
2022/10/10 04:07:04;;;;;;;;;;;;;;;14.05;43.37;99973.81;4454204;32;34000;-81
2022/10/10 04:09:31;;;;;;;;;;;;;;;13.50;44.64;99978.34;4452325;32;34891;-82
2022/10/10 04:11:58;;;;;;;;;;;;;;;13.56;44.29;99975.81;4452797;32;33153;-82
2022/10/10 04:14:26;;;;;;;;;;;;;;;14.33;42.96;99967.19;4448627;32;33808;-81
2022/10/10 04:16:53;;;;;;;;;;;;;;;13.85;43.75;99969.25;4442451;32;33935;-81
2022/10/10 04:19:23;;;;;;;;;;;;;;;13.93;43.68;99971.06;4437396;32;33644;-82
2022/10/10 04:21:50;;;;;;;;;;;;;;;13.58;44.66;99964.56;4437347;32;34061;-81
2022/10/10 04:24:17;;;;;;;;;;;;;;;13.78;44.38;99966.53;4446570;32;34732;-84
2022/10/10 04:26:45;;;;;;;;;;;;;;;13.67;44.35;99974.22;4449217;32;34435;-82
2022/10/10 04:29:12;;;;;;;;;;;;;;;14.63;42.72;99963.16;4439611;32;33516;-82
2022/10/10 04:31:39;;;;;;;;;;;;;;;14.99;41.51;99958.22;4452334;32;33129;-82
2022/10/10 04:34:06;;;;;;;;;;;;;;;14.38;43.05;99962.00;4452360;32;34169;-91
2022/10/10 04:36:34;;;;;;;;;;;;;;;14.57;42.40;99962.22;4448427;32;34140;-88
2022/10/10 04:39:01;;;;;;;;;;;;;;;14.22;43.38;99968.81;4452315;32;34099;-82
2022/10/10 04:41:28;;;;;;;;;;;;;;;14.03;43.77;99967.72;4451437;32;33013;-87
2022/10/10 04:43:55;;;;;;;;;;;;;;;13.94;43.75;99971.13;4452507;32;34259;-86
2022/10/10 04:46:22;;;;;;;;;;;;;;;14.19;43.22;99976.59;4451151;32;34190;-81
2022/10/10 04:48:50;;;;;;;;;;;;;;;14.28;42.90;99981.91;4448919;32;34758;-82
2022/10/10 04:51:17;;;;;;;;;;;;;;;14.51;42.63;99970.03;4449026;32;34367;-84
2022/10/10 04:53:44;;;;;;;;;;;;;;;14.24;43.11;99972.28;4452166;32;33731;-80
2022/10/10 04:56:16;;;;;;;;;;;;;;;14.35;43.19;99976.75;4452689;32;34008;-82
2022/10/10 04:58:43;;;;;;;;;;;;;;;13.73;44.22;99982.12;4451914;32;33776;-83
2022/10/10 05:01:10;;;;;;;;;;;;;;;14.05;43.89;99982.53;4453101;32;32968;-92
2022/10/10 05:03:38;;;;;;;;;;;;;;;14.22;43.22;99984.47;4443025;32;34213;-82
2022/10/10 05:06:05;;;;;;;;;;;;;;;13.93;43.89;99981.50;4441715;32;34026;-82
2022/10/10 05:08:32;;;;;;;;;;;;;;;13.66;44.61;99982.03;4451050;32;34188;-82
2022/10/10 05:11:00;;;;;;;;;;;;;;;14.02;43.94;99974.69;4452038;32;33367;-88
2022/10/10 05:13:27;;;;;;;;;;;;;;;13.37;45.53;99985.09;4452260;32;34263;-82
2022/10/10 05:15:54;;;;;;;;;;;;;;;13.57;45.28;99973.25;4451674;32;34004;-82
2022/10/10 05:18:21;;;;;;;;;;;;;;;13.35;45.53;99979.00;4451882;32;34840;-92
2022/10/10 05:20:48;;;;;;;;;;;;;;;14.08;43.89;99977.34;4448071;32;34142;-85
2022/10/10 05:23:16;;;;;;;;;;;;;;;14.33;43.67;99968.06;4451355;32;34902;-82
2022/10/10 05:25:44;;;;;;;;;;;;;;;14.21;43.46;99970.56;4448169;32;35326;-81
2022/10/10 05:28:11;;;;;;;;;;;;;;;13.66;44.96;99987.25;4443446;32;34783;-81
2022/10/10 05:30:38;;;;;;;;;;;;;;;13.83;44.31;99984.00;4447903;32;33305;-87
2022/10/10 05:33:05;;;;;;;;;;;;;;;14.46;43.49;99979.50;4449973;32;35078;-82
2022/10/10 05:35:33;;;;;;;;;;;;;;;14.23;43.81;99981.84;4450067;32;34298;-83
2022/10/10 05:38:00;;;;;;;;;;;;;;;14.64;42.68;99983.19;4451011;32;33994;-82
2022/10/10 05:40:27;;;;;;;;;;;;;;;14.60;42.49;99977.94;4450352;32;34354;-82
2022/10/10 05:42:54;;;;;;;;;;;;;;;15.34;41.36;99983.72;4442597;32;32624;-86
2022/10/10 05:45:21;;;;;;;;;;;;;;;14.92;42.06;99979.94;4451031;32;34266;-93
2022/10/10 05:47:49;;;;;;;;;;;;;;;14.48;42.79;99990.81;4450655;32;33608;-83
2022/10/10 05:50:21;;;;;;;;;;;;;;;14.07;43.76;99993.84;4451705;32;32812;-83
2022/10/10 05:52:48;;;;;;;;;;;;;;;14.24;44.02;99987.94;4450716;32;34887;-82
2022/10/10 05:55:16;;;;;;;;;;;;;;;14.74;42.82;99990.25;4451403;32;34474;-83
2022/10/10 05:57:43;;;;;;;;;;;;;;;13.90;44.09;99992.75;4451691;32;34304;-81
2022/10/10 06:00:11;;;;;;;;;;;;;;;14.08;44.36;99992.13;4451721;32;34111;-84
2022/10/10 06:02:38;;;;;;;;;;;;;;;14.44;43.69;99993.41;4451845;32;33640;-82
2022/10/10 06:05:05;;;;;;;;;;;;;;;14.39;43.17;100001.16;4451823;32;35511;-83
2022/10/10 06:07:33;;;;;;;;;;;;;;;14.63;43.19;99997.09;4451761;32;34033;-83
2022/10/10 06:10:20;;;;;;;;;;;;;;;14.93;42.66;100007.81;4450828;32;33469;-82
2022/10/10 06:12:47;;;;;;;;;;;;;;;14.09;43.92;99994.75;4450729;32;33909;-81
2022/10/10 06:15:15;;;;;;;;;;;;;;;14.11;44.22;99999.97;4449427;32;34557;-81
2022/10/10 06:17:42;;;;;;;;;;;;;;;14.37;43.57;100000.28;4451690;32;34748;-83
2022/10/10 06:20:09;;;;;;;;;;;;;;;14.21;44.14;99999.25;4451463;32;33587;-87
2022/10/10 06:22:36;;;;;;;;;;;;;;;13.92;44.71;99998.88;4451790;32;34100;-81
2022/10/10 06:25:04;;;;;;;;;;;;;;;14.34;44.04;99995.03;4452018;32;34083;-83
2022/10/10 06:27:50;;;;;;;;;;;;;;;14.23;44.19;99991.41;4450764;32;34393;-83
2022/10/10 06:30:17;;;;;;;;;;;;;;;14.71;43.44;99990.22;4451719;32;34304;-83
2022/10/10 06:32:44;;;;;;;;;;;;;;;14.35;43.54;99997.62;4451700;32;34678;-81
2022/10/10 06:35:11;;;;;;;;;;;;;;;14.65;43.71;99990.12;4450170;32;35184;-83
2022/10/10 06:37:39;;;;;;;;;;;;;;;13.71;45.46;99991.66;4451637;32;34042;-81
2022/10/10 06:40:06;;;;;;;;;;;;;;;13.97;45.45;99997.19;4448082;32;32751;-82
2022/10/10 06:42:33;;;;;;;;;;;;;;;14.80;43.57;99995.50;4450895;32;33724;-88
2022/10/10 06:45:02;;;;;;;;;;;;;;;14.73;43.47;99993.69;4451693;32;33948;-81
2022/10/10 06:47:29;;;;;;;;;;;;;;;14.66;43.58;99986.66;4451537;32;33658;-83
2022/10/10 06:49:56;;;;;;;;;;;;;;;15.24;43.03;99989.78;4450625;32;33316;-83
2022/10/10 06:52:24;;;;;;;;;;;;;;;14.95;43.25;99986.94;4450689;32;34664;-82
2022/10/10 06:54:51;;;;;;;;;;;;;;;14.17;45.19;100000.06;4451340;32;34472;-83
2022/10/10 06:57:18;;;;;;;;;;;;;;;14.81;43.92;99992.03;4450161;32;33937;-83
2022/10/10 06:59:46;;;;;;;;;;;;;;;15.16;43.14;99989.72;4451256;32;33347;-83
2022/10/10 07:02:13;;;;;;;;;;;;;;;15.22;42.52;99994.09;4451179;32;33999;-83
2022/10/10 07:04:40;;;;;;;;;;;;;;;15.37;42.24;99994.19;4451278;32;34186;-83
2022/10/10 07:07:08;;;;;;;;;;;;;;;15.59;42.39;99987.38;4451211;32;34368;-83
2022/10/10 07:09:35;;;;;;;;;;;;;;;15.14;42.77;99985.34;4451052;32;34197;-84
2022/10/10 07:12:03;;;;;;;;;;;;;;;15.16;42.45;99988.84;4451073;32;34180;-84
2022/10/10 07:14:30;;;;;;;;;;;;;;;16.20;41.14;99989.41;4450215;32;34646;-83
2022/10/10 07:16:57;;;;;;;;;;;;;;;16.45;40.20;99988.59;4450957;32;35097;-83
2022/10/10 07:19:25;;;;;;;;;;;;;;;15.94;41.45;99998.03;4451095;32;33639;-83
2022/10/10 07:21:52;;;;;;;;;;;;;;;16.54;39.71;99986.00;4451422;32;33943;-83
2022/10/10 07:24:19;;;;;;;;;;;;;;;17.10;39.28;99986.94;4452720;32;35979;-83
2022/10/10 07:26:46;;;;;;;;;;;;;;;16.08;39.93;100000.69;4453033;32;34321;-83
2022/10/10 07:29:14;;;;;;;;;;;;;;;17.20;38.38;99986.06;4453175;32;32762;-83
2022/10/10 07:31:41;;;;;;;;;;;;;;;16.98;39.40;99986.94;4452891;32;33852;-83
2022/10/10 07:34:08;;;;;;;;;;;;;;;16.52;39.88;99995.59;4453039;32;34055;-83
2022/10/10 07:36:36;;;;;;;;;;;;;;;16.94;39.17;99998.31;4453049;32;33662;-83
2022/10/10 07:39:04;;;;;;;;;;;;;;;17.23;38.33;99991.28;4452832;32;34132;-83
2022/10/10 07:41:31;;;;;;;;;;;;;;;16.94;39.00;99991.31;4453024;32;34317;-83
2022/10/10 07:43:58;;;;;;;;;;;;;;;17.09;38.05;99986.94;4453038;32;34211;-83
2022/10/10 07:46:26;;;;;;;;;;;;;;;16.43;39.98;99992.09;4452920;32;34860;-83
2022/10/10 07:48:54;;;;;;;;;;;;;;;16.19;40.36;99995.50;4452957;32;33117;-83
2022/10/10 07:51:21;;;;;;;;;;;;;;;15.71;41.47;99997.03;4451561;32;33729;-83
2022/10/10 07:53:49;;;;;;;;;;;;;;;16.15;40.70;99994.63;4452816;32;33821;-84
2022/10/10 07:56:17;;;;;;;;;;;;;;;15.88;41.20;99999.75;4451556;32;34988;-84
2022/10/10 07:58:44;;;;;;;;;;;;;;;15.55;42.09;99998.66;4452969;32;33381;-83
2022/10/10 08:01:12;;;;;;;;;;;;;;;16.53;40.62;99993.84;4452717;32;34398;-83
2022/10/10 08:03:39;;;;;;;;;;;;;;;16.33;40.39;99990.31;4452898;32;34142;-88
2022/10/10 08:06:08;;;;;;;;;;;;;;;16.27;41.48;99993.78;4452852;32;34073;-83
2022/10/10 08:08:35;;;;;;;;;;;;;;;16.01;41.67;99999.78;4451967;32;33019;-84
2022/10/10 08:11:14;;;;;;;;;;;;;;;16.75;40.12;99976.47;4452745;32;34100;-83
2022/10/10 08:13:42;;;;;;;;;;;;;;;17.13;40.11;99984.31;4452794;32;34207;-83
2022/10/10 08:16:09;;;;;;;;;;;;;;;17.80;38.34;99982.44;4452967;32;33777;-89
2022/10/10 08:18:36;;;;;;;;;;;;;;;16.60;39.98;99979.91;4452806;32;33566;-90
2022/10/10 08:21:05;;;;;;;;;;;;;;;17.19;39.12;99978.19;4452734;32;34345;-83
2022/10/10 08:23:32;;;;;;;;;;;;;;;18.12;38.57;99982.31;4451476;32;34152;-83
2022/10/10 08:26:00;;;;;;;;;;;;;;;17.82;37.46;99975.47;4452648;32;33896;-91
2022/10/10 08:28:27;;;;;;;;;;;;;;;18.36;37.33;99970.81;4452729;32;32619;-85
2022/10/10 08:30:54;;;;;;;;;;;;;;;18.31;36.48;99964.72;4452576;32;35034;-83
2022/10/10 08:33:24;;;;;;;;;;;;;;;18.31;36.15;99967.34;4452644;32;34178;-83
2022/10/10 08:35:52;;;;;;;;;;;;;;;17.73;36.29;99973.72;4452568;32;34958;-83
2022/10/10 08:38:19;;;;;;;;;;;;;;;18.15;35.73;99971.81;4452715;32;33951;-83
2022/10/10 08:40:49;;;;;;;;;;;;;;;17.33;36.99;99971.19;4452764;32;35930;-83
2022/10/10 08:43:43;;;;;;;;;;;;;;;17.56;36.31;99965.88;4451319;32;34316;-83
2022/10/10 08:46:15;;;;;;;;;;;;;;;17.90;35.70;99964.06;4451206;32;33984;-83
2022/10/10 08:48:42;;;;;;;;;;;;;;;17.36;37.17;99963.31;4451295;32;34254;-83
2022/10/10 08:51:11;;;;;;;;;;;;;;;17.51;36.83;99963.28;4451499;32;34293;-84
2022/10/10 08:53:48;;;;;;;;;;;;;;;18.55;35.94;99954.06;4451124;32;34674;-91
2022/10/10 08:56:17;;;;;;;;;;;;;;;18.02;35.29;99955.25;4452613;32;34186;-84
2022/10/10 08:58:45;;;;;;;;;;;;;;;18.63;34.54;99948.75;4451461;32;33406;-83
2022/10/10 09:01:22;;;;;;;;;;;;;;;18.22;34.81;99952.50;4451188;32;35076;-84
2022/10/10 09:03:55;;;;;;;;;;;;;;;18.98;34.25;99944.97;4452685;32;34789;-83
2022/10/10 09:06:40;;;;;;;;;;;;;;;19.48;32.67;99948.88;4452643;32;34172;-84
2022/10/10 09:09:11;;;;;;;;;;;;;;;18.74;34.26;99946.06;4452616;32;33882;-91
2022/10/10 09:11:38;;;;;;;;;;;;;;;18.67;34.43;99945.22;4452386;32;34603;-83
2022/10/10 09:14:13;;;;;;;;;;;;;;;18.95;34.36;99946.78;4452542;32;33808;-91
2022/10/10 09:16:46;;;;;;;;;;;;;;;18.09;34.86;99959.59;4451275;32;34221;-83
2022/10/10 09:19:23;;;;;;;;;;;;;;;18.65;34.39;99941.75;4451169;32;33334;-83
2022/10/10 09:21:52;;;;;;;;;;;;;;;18.79;33.65;99934.66;4451178;32;34057;-83
2022/10/10 09:24:21;;;;;;;;;;;;;;;18.30;34.45;99939.37;4450842;32;34120;-83
2022/10/10 09:26:50;;;;;;;;;;;;;;;18.29;34.65;99937.59;4450941;32;34159;-83
2022/10/10 09:29:26;;;;;;;;;;;;;;;18.72;34.97;99938.22;4451191;32;32391;-83
2022/10/10 09:32:06;;;;;;;;;;;;;;;19.04;34.15;99935.28;4450920;32;34209;-84
2022/10/10 09:34:35;;;;;;;;;;;;;;;18.47;34.90;99940.97;4450967;32;35503;-83
2022/10/10 09:37:02;;;;;;;;;;;;;;;19.37;32.13;99935.84;4450664;32;34932;-84
2022/10/10 09:39:50;;;;;;;;;;;;;;;18.93;33.74;99943.28;4452394;32;34035;-83
2022/10/10 09:42:17;;;;;;;;;;;;;;;18.75;33.66;99938.16;4450868;32;35041;-83
2022/10/10 09:44:45;;;;;;;;;;;;;;;18.55;34.09;99942.69;4450982;32;34123;-83
2022/10/10 09:47:13;;;;;;;;;;;;;;;19.17;32.21;99930.81;4451936;32;34415;-84
2022/10/10 09:49:40;;;;;;;;;;;;;;;18.99;32.90;99941.50;4452074;32;33084;-84
2022/10/10 09:52:24;;;;;;;;;;;;;;;19.08;33.09;99936.12;4452169;32;33823;-84
2022/10/10 09:54:54;;;;;;;;;;;;;;;19.35;32.53;99935.84;4452091;32;34387;-83
2022/10/10 09:57:21;;;;;;;;;;;;;;;19.23;33.00;99930.72;4450960;32;34100;-91
2022/10/10 09:59:49;;;;;;;;;;;;;;;20.44;31.91;99931.00;4450827;32;33521;-84
2022/10/10 10:02:16;;;;;;;;;;;;;;;19.75;32.77;99932.81;4451805;32;34163;-84
2022/10/10 10:04:44;;;;;;;;;;;;;;;20.32;32.39;99914.47;4451792;32;34377;-84
2022/10/10 10:07:18;;;;;;;;;;;;;;;19.99;31.58;99923.72;4451992;32;35012;-84
2022/10/10 10:09:50;;;;;;;;;;;;;;;19.74;32.73;99933.72;4451819;32;33248;-84
2022/10/10 10:12:20;;;;;;;;;;;;;;;19.68;31.29;99928.50;4450545;32;34847;-83
2022/10/10 10:14:47;;;;;;;;;;;;;;;18.91;32.05;99929.28;4451898;32;34226;-83
2022/10/10 10:17:15;;;;;;;;;;;;;;;18.81;32.69;99927.63;4450543;32;33975;-84
2022/10/10 10:19:43;;;;;;;;;;;;;;;20.43;30.88;99914.31;4451789;32;34346;-84
2022/10/10 10:22:26;;;;;;;;;;;;;;;20.64;30.47;99908.72;4450423;32;34219;-84
2022/10/10 10:24:53;;;;;;;;;;;;;;;20.65;30.82;99917.53;4451791;32;35113;-84
2022/10/10 10:27:21;;;;;;;;;;;;;;;20.58;30.68;99902.72;4450672;32;34902;-85
2022/10/10 10:29:53;;;;;;;;;;;;;;;20.20;31.54;99911.16;4450916;32;33954;-84
2022/10/10 10:32:25;;;;;;;;;;;;;;;20.01;31.16;99914.06;4451768;32;34870;-83
2022/10/10 10:34:59;;;;;;;;;;;;;;;20.97;29.85;99900.28;4450588;32;34896;-84
2022/10/10 10:37:33;;;;;;;;;;;;;;;20.80;29.85;99898.81;4450419;32;34509;-83
2022/10/10 10:40:12;;;;;;;;;;;;;;;21.04;29.65;99897.50;4451988;32;33534;-84
2022/10/10 10:42:53;;;;;;;;;;;;;;;20.65;29.67;99888.53;4451666;32;34208;-83
2022/10/10 10:45:20;;;;;;;;;;;;;;;19.77;31.01;99894.19;4450434;32;35265;-85
2022/10/10 10:47:52;;;;;;;;;;;;;;;20.93;30.52;99883.66;4451807;32;34079;-83
2022/10/10 10:50:25;;;;;;;;;;;;;;;21.54;29.87;99886.91;4450096;32;34192;-84
2022/10/10 10:52:55;;;;;;;;;;;;;;;22.54;28.24;99880.25;4451235;32;33350;-84
2022/10/10 10:55:25;;;;;;;;;;;;;;;22.63;27.64;99877.41;4450195;32;35318;-85
2022/10/10 10:57:55;;;;;;;;;;;;;;;22.77;26.86;99875.28;4450667;32;35037;-85
2022/10/10 11:00:48;;;;;;;;;;;;;;;22.21;27.95;99874.91;4453296;32;33554;-84
2022/10/10 11:03:41;;;;;;;;;;;;;;;22.78;26.81;99871.72;4441569;32;34911;-84
2022/10/10 11:07:01;;;;;;;;;;;;;;;22.48;27.61;99868.09;4452156;32;35310;-83
2022/10/10 11:09:49;;;;;;;;;;;;;;;22.75;26.21;99863.87;4426848;32;34020;-84
2022/10/10 11:12:30;;;;;;;;;;;;;;;22.78;27.68;99863.78;4453293;32;34396;-93
2022/10/10 11:15:00;;;;;;;;;;;;;;;22.02;25.79;99853.31;4451880;32;33746;-84
2022/10/10 11:17:30;;;;;;;;;;;;;;;22.03;26.28;99870.00;4451746;32;34082;-85
2022/10/10 11:20:18;;;;;;;;;;;;;;;21.83;26.40;99866.03;4453247;32;35087;-84
2022/10/10 11:22:50;;;;;;;;;;;;;;;22.55;25.63;99858.22;4452009;32;34029;-84
2022/10/10 11:25:22;;;;;;;;;;;;;;;22.57;26.04;99851.13;4451376;32;33934;-84
2022/10/10 11:27:51;;;;;;;;;;;;;;;21.89;26.61;99848.31;4452592;32;33954;-85
2022/10/10 11:30:18;;;;;;;;;;;;;;;22.04;26.34;99840.06;4451252;32;35089;-85
2022/10/10 11:32:46;;;;;;;;;;;;;;;22.44;26.42;99839.13;4452348;32;33027;-84
2022/10/10 11:35:32;;;;;;;;;;;;;;;22.07;28.32;99839.97;4452548;32;33833;-85
2022/10/10 11:38:02;;;;;;;;;;;;;;;22.08;26.92;99829.38;4452217;32;34467;-93
2022/10/10 11:40:32;;;;;;;;;;;;;;;22.71;29.00;99832.28;4451152;32;33977;-93
2022/10/10 11:43:01;;;;;;;;;;;;;;;22.57;28.05;99829.97;4451039;32;34276;-83
2022/10/10 11:45:30;;;;;;;;;;;;;;;22.81;27.24;99829.34;4450807;32;34802;-84
2022/10/10 11:48:03;;;;;;;;;;;;;;;22.97;27.77;99826.31;4451052;32;34275;-85
2022/10/10 11:50:31;;;;;;;;;;;;;;;23.53;26.26;99813.25;4450933;32;34305;-86
2022/10/10 11:53:25;;;;;;;;;;;;;;;22.12;27.47;99822.25;4450816;32;32850;-85
2022/10/10 11:55:52;;;;;;;;;;;;;;;22.19;27.34;99821.22;4449617;32;33590;-84
2022/10/10 11:58:24;;;;;;;;;;;;;;;22.09;27.01;99817.06;4452230;32;35415;-84
2022/10/10 12:00:53;;;;;;;;;;;;;;;22.53;27.52;99818.63;4450592;32;34966;-85
2022/10/10 12:03:22;;;;;;;;;;;;;;;22.19;26.91;99813.31;4450758;32;33649;-84
2022/10/10 12:05:52;;;;;;;;;;;;;;;21.62;27.47;99816.38;4452366;32;34394;-84
2022/10/10 12:08:21;;;;;;;;;;;;;;;21.83;28.81;99800.06;4450735;32;35291;-84
2022/10/10 12:10:52;;;;;;;;;;;;;;;22.94;26.17;99797.31;4450719;32;34164;-84
2022/10/10 12:13:22;;;;;;;;;;;;;;;22.70;27.10;99799.69;4450718;32;33318;-96
2022/10/10 12:15:50;;;;;;;;;;;;;;;22.91;28.30;99797.38;4451817;32;34723;-85
2022/10/10 12:18:23;;;;;;;;;;;;;;;23.42;26.67;99788.91;4451939;32;35232;-94
2022/10/10 12:21:01;;;;;;;;;;;;;;;23.19;26.60;99786.91;4451880;32;34557;-85
2022/10/10 12:23:28;;;;;;;;;;;;;;;23.17;26.16;99788.72;4450601;32;33614;-84
2022/10/10 12:25:56;;;;;;;;;;;;;;;23.52;26.30;99779.75;4426230;32;792364;-84
2022/10/10 12:28:25;;;;;;;;;;;;;;;22.89;26.17;99785.97;4453049;32;34335;-85
2022/10/10 12:30:55;;;;;;;;;;;;;;;23.83;25.00;99773.53;4451488;32;34785;-93
2022/10/10 12:33:24;;;;;;;;;;;;;;;23.89;27.52;99782.16;4452636;32;32912;-85
2022/10/10 12:35:52;;;;;;;;;;;;;;;24.14;26.54;99779.59;4452515;32;34359;-85
2022/10/10 12:38:22;;;;;;;;;;;;;;;23.35;25.78;99784.69;4451338;32;34356;-84
2022/10/10 12:40:56;;;;;;;;;;;;;;;23.47;25.66;99781.66;4452820;32;33805;-85
2022/10/10 12:43:24;;;;;;;;;;;;;;;23.01;26.62;99788.31;4452580;32;33908;-85
2022/10/10 12:45:52;;;;;;;;;;;;;;;23.26;25.39;99784.06;4452409;32;34140;-85
2022/10/10 12:48:19;;;;;;;;;;;;;;;23.50;24.63;99781.59;4452500;32;35215;-85
2022/10/10 12:50:59;;;;;;;;;;;;;;;24.10;24.48;99777.94;4451029;32;34212;-85
2022/10/10 12:53:27;;;;;;;;;;;;;;;24.00;26.32;99781.81;4451150;32;34161;-85
2022/10/10 12:55:59;;;;;;;;;;;;;;;24.24;26.96;99775.72;4452486;32;33987;-84
2022/10/10 12:58:28;;;;;;;;;;;;;;;24.71;24.84;99767.94;4451475;32;35281;-85